Terminal Aerodrome Forecast
Issued by NWS Cleveland, OH

Home | Current Version | Previous Version | Graphics & Text | Print | Product List | Glossary On
Versions: 1 2 3 4 5 6 7 8 9 10 11 12 13 14 15 16 17
546
FTUS41 KCLE 201735
TAFERI
TAF
KERI 201735Z 2018/2118 20010KT P6SM OVC040
      TEMPO 2022/2024 5SM -SHRA BKN015
     FM210000 18006KT 5SM -SHRA OVC015
     FM210400 VRB03KT 3SM BR OVC006
     FM211200 33006KT 5SM BR OVC012=

USA.gov is the U.S. government's official web portal to all federal, state and local government web resources and services.